Menu Close Menu
Station Historical Data
Daily Summary for December 07, 2017 Units:  English    Metric   Both
« Previous Day
Next Day »
Daily Weekly Monthly Yearly Custom
  High: Low: Average:
Temperature: 48.7 °F 39.5 °F 42.6 °F
Dew Point: 33.1 °F 25.4 °F 30 °F
Humidity: 72% 41% 62%
Wind Speed: 5.8mph 0.0mph 1.1mph
Wind Gust: 4.6mph - -
Wind- - SSE
Pressure: 30.25 in 30.14 in -
Precipitation: 0.00 in    
Historical Graphs
 
 
Tabular Data for December 07, 2017
Time Temperature Dew Point Pressure Wind Wind Speed Wind Gust Humidity Rainfall Rate (Hourly) solar Conditions
00:03 39.5 °F 30.9 °F 30.23 in Calm     71% 0.00 in WeatherDisplay:10.37 W/m2 CLR
00:07 39.5 °F 31.2 °F 30.24 in Calm     72% 0.00 in WeatherDisplay:10.37 W/m2 CLR
00:12 39.6 °F 30.6 °F 30.24 in Calm     70% 0.00 in WeatherDisplay:10.37 W/m2 CLR
00:17 39.6 °F 29.9 °F 30.24 in Calm     68% 0.00 in WeatherDisplay:10.37 W/m2 CLR
00:23 39.7 °F 30.0 °F 30.23 in Calm     68% 0.00 in WeatherDisplay:10.37 W/m2 CLR
00:28 39.8 °F 30.1 °F 30.23 in Calm     68% 0.00 in WeatherDisplay:10.37 W/m2 CLR
00:33 39.9 °F 30.9 °F 30.23 in Calm     70% 0.00 in WeatherDisplay:10.37 W/m2 CLR
00:38 39.8 °F 30.1 °F 30.22 in Calm     68% 0.00 in WeatherDisplay:10.37 W/m2 CLR
00:43 39.8 °F 30.1 °F 30.22 in Calm     68% 0.00 in WeatherDisplay:10.37 W/m2 CLR
00:48 39.7 °F 28.9 °F 30.21 in NNE 1.2 mph   65% 0.00 in WeatherDisplay:10.37 W/m2 CLR
00:53 39.9 °F 29.1 °F 30.22 in North 1.2 mph   65% 0.00 in WeatherDisplay:10.37 W/m2 CLR
00:58 39.9 °F 29.5 °F 30.22 in NNW 1.2 mph   66% 0.00 in WeatherDisplay:10.37 W/m2 CLR
01:03 39.9 °F 29.8 °F 30.22 in Calm     67% 0.00 in WeatherDisplay:10.37 W/m2 CLR
01:08 39.9 °F 29.8 °F 30.22 in Calm     67% 0.00 in WeatherDisplay:10.37 W/m2 CLR
01:13 39.8 °F 29.4 °F 30.22 in Calm     66% 0.00 in WeatherDisplay:10.37 W/m2 CLR
01:18 39.8 °F 29.7 °F 30.22 in Calm     67% 0.00 in WeatherDisplay:10.37 W/m2 CLR
01:23 39.7 °F 29.6 °F 30.22 in Calm     67% 0.00 in WeatherDisplay:10.37 W/m2 CLR
01:28 39.7 °F 29.3 °F 30.22 in NW 1.2 mph   66% 0.00 in WeatherDisplay:10.37 W/m2 CLR
01:34 39.7 °F 30.0 °F 30.23 in WSW 1.2 mph   68% 0.00 in WeatherDisplay:10.37 W/m2 CLR
01:39 39.7 °F 30.0 °F 30.22 in Calm     68% 0.00 in WeatherDisplay:10.37 W/m2 CLR
01:44 39.7 °F 29.6 °F 30.21 in Calm     67% 0.00 in WeatherDisplay:10.37 W/m2 CLR
01:49 39.7 °F 30.0 °F 30.21 in Calm     68% 0.00 in WeatherDisplay:10.37 W/m2 CLR
01:54 39.7 °F 30.4 °F 30.22 in Calm     69% 0.00 in WeatherDisplay:10.37 W/m2 CLR
01:59 39.6 °F 29.5 °F 30.22 in Calm     67% 0.00 in WeatherDisplay:10.37 W/m2 CLR
02:04 39.6 °F 30.6 °F 30.22 in Calm     70% 0.00 in WeatherDisplay:10.37 W/m2 CLR
02:09 39.7 °F 30.0 °F 30.22 in Calm     68% 0.00 in WeatherDisplay:10.37 W/m2 CLR
02:14 39.7 °F 29.6 °F 30.22 in Calm     67% 0.00 in WeatherDisplay:10.37 W/m2 CLR
02:19 39.7 °F 29.6 °F 30.22 in Calm     67% 0.00 in WeatherDisplay:10.37 W/m2 CLR
02:24 39.7 °F 29.3 °F 30.22 in Calm     66% 0.00 in WeatherDisplay:10.37 W/m2 CLR
02:29 39.7 °F 30.0 °F 30.23 in Calm     68% 0.00 in WeatherDisplay:10.37 W/m2 CLR
02:34 39.7 °F 29.6 °F 30.22 in Calm     67% 0.00 in WeatherDisplay:10.37 W/m2 CLR
02:40 39.7 °F 29.6 °F 30.22 in Calm     67% 0.00 in WeatherDisplay:10.37 W/m2 CLR
02:45 39.7 °F 30.0 °F 30.22 in Calm     68% 0.00 in WeatherDisplay:10.37 W/m2 CLR
02:50 39.7 °F 30.4 °F 30.22 in Calm     69% 0.00 in WeatherDisplay:10.37 W/m2 CLR
02:55 39.7 °F 30.0 °F 30.23 in Calm     68% 0.00 in WeatherDisplay:10.37 W/m2 CLR
03:00 39.7 °F 30.4 °F 30.22 in Calm     69% 0.00 in WeatherDisplay:10.37 W/m2 CLR
03:05 39.7 °F 30.4 °F 30.22 in Calm     69% 0.00 in WeatherDisplay:10.37 W/m2 CLR
03:10 39.7 °F 30.7 °F 30.23 in Calm     70% 0.00 in WeatherDisplay:10.37 W/m2 CLR
03:15 39.7 °F 30.0 °F 30.22 in Calm     68% 0.00 in WeatherDisplay:10.37 W/m2 CLR
03:20 39.6 °F 29.9 °F 30.23 in Calm     68% 0.00 in WeatherDisplay:10.37 W/m2 CLR
03:25 39.6 °F 30.6 °F 30.22 in Calm     70% 0.00 in WeatherDisplay:10.37 W/m2 CLR
03:30 39.6 °F 30.3 °F 30.23 in Calm     69% 0.00 in WeatherDisplay:10.37 W/m2 CLR
03:35 39.6 °F 30.3 °F 30.23 in Calm     69% 0.00 in WeatherDisplay:10.37 W/m2 CLR
03:40 39.6 °F 31.0 °F 30.22 in Calm     71% 0.00 in WeatherDisplay:10.37 W/m2 CLR
03:46 39.6 °F 31.0 °F 30.22 in Calm     71% 0.00 in WeatherDisplay:10.37 W/m2 CLR
03:51 39.6 °F 31.0 °F 30.22 in Calm     71% 0.00 in WeatherDisplay:10.37 W/m2 CLR
03:56 39.5 °F 30.9 °F 30.22 in Calm     71% 0.00 in WeatherDisplay:10.37 W/m2 CLR
04:01 39.6 °F 31.0 °F 30.22 in Calm     71% 0.00 in WeatherDisplay:10.37 W/m2 CLR
04:06 39.6 °F 30.6 °F 30.22 in Calm     70% 0.00 in WeatherDisplay:10.37 W/m2 CLR
04:11 39.6 °F 30.3 °F 30.22 in Calm     69% 0.00 in WeatherDisplay:10.37 W/m2 CLR
04:16 39.6 °F 30.6 °F 30.21 in Calm     70% 0.00 in WeatherDisplay:10.37 W/m2 CLR
04:21 39.6 °F 30.3 °F 30.21 in Calm     69% 0.00 in WeatherDisplay:10.37 W/m2 CLR
04:26 39.6 °F 30.3 °F 30.21 in Calm     69% 0.00 in WeatherDisplay:10.37 W/m2 CLR
04:31 39.7 °F 30.7 °F 30.21 in Calm     70% 0.00 in WeatherDisplay:10.37 W/m2 CLR
04:36 39.6 °F 31.0 °F 30.21 in Calm     71% 0.00 in WeatherDisplay:10.37 W/m2 CLR
04:42 39.6 °F 30.3 °F 30.21 in Calm     69% 0.00 in WeatherDisplay:10.37 W/m2 CLR
04:47 39.6 °F 30.6 °F 30.22 in Calm     70% 0.00 in WeatherDisplay:10.37 W/m2 CLR
04:52 39.6 °F 31.0 °F 30.21 in Calm     71% 0.00 in WeatherDisplay:10.37 W/m2 CLR
04:57 39.6 °F 31.0 °F 30.20 in Calm     71% 0.00 in WeatherDisplay:10.37 W/m2 CLR
05:02 39.6 °F 31.3 °F 30.20 in Calm     72% 0.00 in WeatherDisplay:10.37 W/m2 BKN
05:07 39.6 °F 30.3 °F 30.20 in Calm     69% 0.00 in WeatherDisplay:10.37 W/m2 BKN
05:12 39.5 °F 30.5 °F 30.21 in Calm     70% 0.00 in WeatherDisplay:10.37 W/m2 BKN
05:17 39.5 °F 30.5 °F 30.20 in Calm     70% 0.00 in WeatherDisplay:10.37 W/m2 BKN
05:22 39.5 °F 30.9 °F 30.21 in Calm     71% 0.00 in WeatherDisplay:10.37 W/m2 BKN
05:27 39.5 °F 31.2 °F 30.21 in Calm   0.1 mph 72% 0.00 in WeatherDisplay:10.37 W/m2 BKN
05:32 39.6 °F 31.0 °F 30.21 in WNW 1.2 mph   71% 0.00 in WeatherDisplay:10.37 W/m2 BKN
05:37 39.6 °F 31.0 °F 30.19 in West 1.2 mph   71% 0.00 in WeatherDisplay:10.37 W/m2 BKN
05:42 39.5 °F 30.9 °F 30.20 in West 1.2 mph   71% 0.00 in WeatherDisplay:10.37 W/m2 BKN
05:48 39.6 °F 30.6 °F 30.21 in Calm     70% 0.00 in WeatherDisplay:10.37 W/m2 BKN
05:53 39.6 °F 30.6 °F 30.21 in Calm     70% 0.00 in WeatherDisplay:10.37 W/m2 BKN
05:58 39.6 °F 30.6 °F 30.21 in WNW 1.2 mph   70% 0.00 in WeatherDisplay:10.37 W/m2 BKN
06:03 39.7 °F 30.4 °F 30.21 in NW 1.2 mph   69% 0.00 in WeatherDisplay:10.37 W/m2 BKN
06:08 39.6 °F 30.6 °F 30.21 in Calm     70% 0.00 in WeatherDisplay:10.37 W/m2 BKN
06:13 39.6 °F 30.6 °F 30.21 in Calm     70% 0.00 in WeatherDisplay:10.37 W/m2 BKN
06:18 39.6 °F 30.6 °F 30.21 in Calm     70% 0.00 in WeatherDisplay:10.37 W/m2 BKN
06:23 39.6 °F 30.6 °F 30.21 in Calm     70% 0.00 in WeatherDisplay:10.37 W/m2 BKN
06:28 39.6 °F 30.6 °F 30.21 in Calm     70% 0.00 in WeatherDisplay:10.37 W/m2 BKN
06:33 39.6 °F 30.6 °F 30.21 in Calm     70% 0.00 in WeatherDisplay:10.37 W/m2 BKN
06:38 39.6 °F 30.6 °F 30.21 in NNW 1.2 mph   70% 0.00 in WeatherDisplay:10.37 W/m2 BKN
06:43 39.7 °F 31.1 °F 30.21 in WNW 1.2 mph   71% 0.00 in WeatherDisplay:10.37 W/m2 BKN
06:48 39.7 °F 30.4 °F 30.21 in WNW 1.2 mph 1.2 mph 69% 0.00 in WeatherDisplay:10.37 W/m2 BKN
06:53 39.7 °F 30.7 °F 30.21 in WNW 1.2 mph   70% 0.00 in WeatherDisplay:10.37 W/m2 BKN
06:59 39.7 °F 31.1 °F 30.21 in WNW 1.2 mph   71% 0.00 in WeatherDisplay:10.37 W/m2 BKN
07:04 39.7 °F 30.0 °F 30.21 in WNW 1.2 mph   68% 0.00 in WeatherDisplay:10.37 W/m2 SCT
07:09 39.8 °F 30.5 °F 30.21 in WNW 1.2 mph   69% 0.00 in WeatherDisplay:10.37 W/m2 SCT
07:14 39.8 °F 30.5 °F 30.21 in WNW 1.2 mph   69% 0.00 in WeatherDisplay:10.37 W/m2 SCT
07:19 39.8 °F 30.1 °F 30.22 in WNW 1.2 mph   68% 0.00 in WeatherDisplay:10.37 W/m2 SCT
07:24 39.8 °F 30.1 °F 30.22 in North 1.2 mph   68% 0.00 in WeatherDisplay:10.37 W/m2 SCT
07:29 39.9 °F 30.2 °F 30.21 in NNE 1.2 mph   68% 0.00 in WeatherDisplay:10.37 W/m2 SCT
07:34 39.9 °F 30.5 °F 30.22 in ENE 1.2 mph   69% 0.00 in WeatherDisplay:10.37 W/m2 SCT
07:43 39.9 °F 30.2 °F 30.22 in East 1.2 mph   68% 0.00 in WeatherDisplay:10.37 W/m2 SCT
07:48 39.9 °F 30.9 °F 30.22 in East 1.2 mph   70% 0.00 in WeatherDisplay:10.37 W/m2 SCT
07:53 39.9 °F 30.5 °F 30.22 in Calm     69% 0.00 in WeatherDisplay:10.37 W/m2 SCT
07:58 39.9 °F 30.2 °F 30.22 in ESE 1.2 mph 1.2 mph 68% 0.00 in WeatherDisplay:10.37 W/m2 SCT
08:03 40.0 °F 30.3 °F 30.22 in South 1.2 mph 1.2 mph 68% 0.00 in WeatherDisplay:10.37 W/m2 OVC
08:08 40.1 °F 30.4 °F 30.22 in South 1.2 mph   68% 0.00 in WeatherDisplay:10.37 W/m2 OVC
08:13 40.1 °F 30.4 °F 30.22 in SSE 1.2 mph   68% 0.00 in WeatherDisplay:10.37 W/m2 OVC
08:18 40.1 °F 30.7 °F 30.23 in SSW 1.2 mph   69% 0.00 in WeatherDisplay:10.37 W/m2 OVC
08:23 40.1 °F 30.4 °F 30.23 in SW 1.2 mph   68% 0.00 in WeatherDisplay:10.37 W/m2 OVC
08:33 40.2 °F 30.5 °F 30.22 in South 1.2 mph   68% 0.00 in WeatherDisplay:10.37 W/m2 OVC
08:49 40.4 °F 30.3 °F 30.23 in East 1.2 mph   67% 0.00 in WeatherDisplay:10.37 W/m2 OVC
08:54 40.5 °F 30.8 °F 30.24 in East 1.2 mph   68% 0.00 in WeatherDisplay:10.37 W/m2 OVC
08:59 40.6 °F 30.5 °F 30.24 in East 1.2 mph 1.2 mph 67% 0.00 in WeatherDisplay:10.37 W/m2 OVC
09:04 40.7 °F 30.2 °F 30.24 in East 2.3 mph 2.3 mph 66% 0.00 in WeatherDisplay:10.37 W/m2 OVC
09:09 40.9 °F 30.4 °F 30.24 in East 2.3 mph 2.3 mph 66% 0.00 in WeatherDisplay:10.37 W/m2 OVC
09:14 41.1 °F 30.2 °F 30.24 in ENE 3.5 mph 3.5 mph 65% 0.00 in WeatherDisplay:10.37 W/m2 OVC
09:24 41.4 °F 30.1 °F 30.24 in ESE 3.5 mph 3.5 mph 64% 0.00 in WeatherDisplay:10.37 W/m2 OVC
09:29 41.5 °F 30.2 °F 30.24 in ESE 3.5 mph 3.5 mph 64% 0.00 in WeatherDisplay:10.37 W/m2 OVC
09:34 41.6 °F 30.3 °F 30.24 in ESE 2.3 mph 2.3 mph 64% 0.00 in WeatherDisplay:10.37 W/m2 OVC
09:39 41.7 °F 30.4 °F 30.24 in ESE 3.5 mph 3.5 mph 64% 0.00 in WeatherDisplay:10.37 W/m2 OVC
09:44 41.8 °F 29.7 °F 30.25 in ESE 4.6 mph 4.6 mph 62% 0.00 in WeatherDisplay:10.37 W/m2 OVC
09:50 42.0 °F 30.3 °F 30.25 in Calm   1.0 mph 63% 0.00 in WeatherDisplay:10.37 W/m2 OVC
09:55 42.2 °F 30.1 °F 30.25 in Calm   2.0 mph 62% 0.00 in WeatherDisplay:10.37 W/m2 OVC
10:00 42.4 °F 31.1 °F 30.25 in East 2.3 mph   64% 0.00 in WeatherDisplay:10.37 W/m2 OVC
10:15 43.1 °F 30.6 °F 30.25 in East 2.3 mph   61% 0.00 in WeatherDisplay:10.37 W/m2 OVC
10:25 43.4 °F 31.2 °F 30.25 in North 1.2 mph 1.2 mph 62% 0.00 in WeatherDisplay:10.37 W/m2 OVC
10:40 43.7 °F 30.7 °F 30.25 in ESE 2.3 mph 2.3 mph 60% 0.00 in WeatherDisplay:10.37 W/m2 OVC
10:46 43.7 °F 31.1 °F 30.25 in SE 2.3 mph 2.3 mph 61% 0.00 in WeatherDisplay:10.37 W/m2 OVC
10:51 43.7 °F 30.7 °F 30.25 in ESE 1.2 mph   60% 0.00 in WeatherDisplay:10.37 W/m2 OVC
10:56 43.9 °F 30.9 °F 30.25 in ESE 1.2 mph   60% 0.00 in WeatherDisplay:10.37 W/m2 OVC
11:06 44.1 °F 31.9 °F 30.25 in East 1.2 mph 1.2 mph 62% 0.00 in WeatherDisplay:10.37 W/m2 OVC
11:11 44.2 °F 31.6 °F 30.25 in West 1.2 mph   61% 0.00 in WeatherDisplay:10.37 W/m2 OVC
11:26 44.5 °F 30.6 °F 30.25 in NE 1.2 mph   58% 0.00 in WeatherDisplay:10.37 W/m2 OVC
11:31 44.7 °F 31.7 °F 30.24 in ENE 1.2 mph   60% 0.00 in WeatherDisplay:10.37 W/m2 OVC
11:41 45.0 °F 31.5 °F 30.25 in NE 1.2 mph   59% 0.00 in WeatherDisplay:10.37 W/m2 OVC
11:52 45.5 °F 32.0 °F 30.24 in SSW 2.3 mph   59% 0.00 in WeatherDisplay:10.37 W/m2 OVC
11:57 46.0 °F 32.0 °F 30.23 in WNW 2.3 mph   58% 0.00 in WeatherDisplay:10.37 W/m2 OVC
12:02 46.2 °F 30.9 °F 30.23 in Calm     55% 0.00 in WeatherDisplay:10.37 W/m2 OVC
12:07 46.4 °F 31.1 °F 30.23 in NNW 1.2 mph   55% 0.00 in WeatherDisplay:10.37 W/m2 OVC
12:17 46.5 °F 30.7 °F 30.22 in SW 1.2 mph   54% 0.00 in WeatherDisplay:10.37 W/m2 OVC
12:22 46.8 °F 30.1 °F 30.21 in SW 4.6 mph 4.6 mph 52% 0.00 in WeatherDisplay:10.37 W/m2 OVC
12:27 46.6 °F 29.4 °F 30.21 in SE 4.6 mph 4.6 mph 51% 0.00 in WeatherDisplay:10.37 W/m2 OVC
12:42 46.4 °F 29.2 °F 30.20 in East 3.5 mph 3.5 mph 51% 0.00 in WeatherDisplay:10.37 W/m2 OVC
12:53 46.7 °F 30.0 °F 30.19 in SE 1.2 mph   52% 0.00 in WeatherDisplay:10.37 W/m2 OVC
13:03 46.9 °F 28.2 °F 30.19 in South 2.3 mph 2.3 mph 48% 0.00 in WeatherDisplay:10.37 W/m2 OVC
13:08 47.0 °F 30.3 °F 30.20 in South 2.3 mph 2.3 mph 52% 0.00 in WeatherDisplay:10.37 W/m2 OVC
13:13 47.1 °F 29.4 °F 30.19 in SSE 3.5 mph 3.5 mph 50% 0.00 in WeatherDisplay:10.37 W/m2 OVC
13:18 47.3 °F 30.1 °F 30.19 in South 3.5 mph   51% 0.00 in WeatherDisplay:10.37 W/m2 OVC
13:23 47.5 °F 29.8 °F 30.18 in SSE 3.5 mph 3.5 mph 50% 0.00 in WeatherDisplay:10.37 W/m2 OVC
13:28 47.6 °F 29.9 °F 30.17 in SSE 3.5 mph 3.5 mph 50% 0.00 in WeatherDisplay:10.37 W/m2 OVC
13:38 48.2 °F 29.4 °F 30.16 in NNE 2.3 mph 2.3 mph 48% 0.00 in WeatherDisplay:10.37 W/m2 OVC
13:43 48.3 °F 29.0 °F 30.16 in NE 2.3 mph   47% 0.00 in WeatherDisplay:10.37 W/m2 OVC
13:48 48.4 °F 29.6 °F 30.17 in NE 2.3 mph   48% 0.00 in WeatherDisplay:10.37 W/m2 OVC
13:54 48.5 °F 29.2 °F 30.17 in ENE 2.3 mph   47% 0.00 in WeatherDisplay:10.37 W/m2 OVC
14:04 48.5 °F 29.2 °F 30.17 in NE 2.3 mph 2.3 mph 47% 0.00 in WeatherDisplay:10.37 W/m2 OVC
14:09 48.4 °F 28.5 °F 30.16 in East 4.6 mph 4.6 mph 46% 0.00 in WeatherDisplay:10.37 W/m2 OVC
14:14 48.5 °F 29.2 °F 30.16 in SE 4.6 mph   47% 0.00 in WeatherDisplay:10.37 W/m2 OVC
14:19 48.7 °F 29.9 °F 30.16 in SE 2.3 mph 2.3 mph 48% 0.00 in WeatherDisplay:10.37 W/m2 OVC
14:24 48.7 °F 28.8 °F 30.16 in WSW 3.5 mph 3.5 mph 46% 0.00 in WeatherDisplay:10.37 W/m2 OVC
14:29 48.7 °F 27.7 °F 30.16 in SSE 4.6 mph 4.6 mph 44% 0.00 in WeatherDisplay:10.37 W/m2 OVC
14:34 48.7 °F 27.2 °F 30.16 in East 4.6 mph 4.6 mph 43% 0.00 in WeatherDisplay:10.37 W/m2 OVC
14:39 48.6 °F 27.6 °F 30.17 in SE 4.6 mph 4.6 mph 44% 0.00 in WeatherDisplay:10.37 W/m2 OVC
14:44 48.6 °F 27.6 °F 30.17 in SSE 4.6 mph   44% 0.00 in WeatherDisplay:10.37 W/m2 OVC
14:50 48.6 °F 29.3 °F 30.16 in SSW 2.3 mph 2.3 mph 47% 0.00 in WeatherDisplay:10.37 W/m2 OVC
14:55 48.7 °F 28.8 °F 30.16 in Calm   1.0 mph 46% 0.00 in WeatherDisplay:10.37 W/m2 OVC
15:00 48.7 °F 26.0 °F 30.17 in NE 3.5 mph 3.5 mph 41% 0.00 in WeatherDisplay:10.37 W/m2 OVC
15:15 48.5 °F 25.8 °F 30.16 in South 5.8 mph   41% 0.00 in WeatherDisplay:10.37 W/m2 OVC
15:20 48.4 °F 26.3 °F 30.16 in SSE 5.8 mph   42% 0.00 in WeatherDisplay:10.37 W/m2 OVC
15:25 48.4 °F 26.9 °F 30.16 in SE 2.3 mph   43% 0.00 in WeatherDisplay:10.37 W/m2 OVC
15:30 48.3 °F 27.9 °F 30.16 in ESE 1.2 mph   45% 0.00 in WeatherDisplay:10.37 W/m2 OVC
15:35 48.2 °F 26.7 °F 30.16 in SSE 1.2 mph 1.2 mph 43% 0.00 in WeatherDisplay:10.37 W/m2 OVC
15:56 47.6 °F 27.3 °F 30.16 in North 2.3 mph   45% 0.00 in WeatherDisplay:10.37 W/m2 OVC
16:01 47.5 °F 27.2 °F 30.16 in East 4.6 mph   45% 0.00 in WeatherDisplay:10.37 W/m2 OVC
16:06 47.4 °F 26.6 °F 30.17 in SSE 4.6 mph 4.6 mph 44% 0.00 in WeatherDisplay:10.37 W/m2 OVC
16:16 47.2 °F 26.4 °F 30.17 in SE 4.6 mph 4.6 mph 44% 0.00 in WeatherDisplay:10.37 W/m2 OVC
16:21 47.1 °F 26.3 °F 30.17 in ENE 4.6 mph 4.6 mph 44% 0.00 in WeatherDisplay:10.37 W/m2 OVC
16:26 47.0 °F 26.7 °F 30.17 in NE 1.2 mph 1.2 mph 45% 0.00 in WeatherDisplay:10.37 W/m2 OVC
16:31 46.8 °F 25.5 °F 30.17 in NNE 3.5 mph   43% 0.00 in WeatherDisplay:10.37 W/m2 OVC
16:41 46.7 °F 25.4 °F 30.17 in ENE 2.3 mph 2.3 mph 43% 0.00 in WeatherDisplay:10.37 W/m2 OVC
16:47 46.6 °F 26.4 °F 30.16 in ESE 2.3 mph 2.3 mph 45% 0.00 in WeatherDisplay:10.37 W/m2 OVC
16:52 46.4 °F 26.7 °F 30.17 in ENE 2.3 mph   46% 0.00 in WeatherDisplay:10.37 W/m2 OVC
16:57 46.4 °F 26.2 °F 30.17 in NE 2.3 mph 2.3 mph 45% 0.00 in WeatherDisplay:10.37 W/m2 OVC
17:02 46.3 °F 27.2 °F 30.17 in NW 2.3 mph   47% 0.00 in WeatherDisplay:10.37 W/m2 OVC
17:12 46.0 °F 27.4 °F 30.17 in WNW 2.3 mph   48% 0.00 in WeatherDisplay:10.37 W/m2 OVC
17:17 45.9 °F 27.8 °F 30.17 in WNW 2.3 mph   49% 0.00 in WeatherDisplay:10.37 W/m2 OVC
17:27 45.8 °F 28.2 °F 30.17 in WNW 1.2 mph 1.2 mph 50% 0.00 in WeatherDisplay:10.37 W/m2 OVC
17:32 45.7 °F 28.1 °F 30.17 in WNW 1.2 mph   50% 0.00 in WeatherDisplay:10.37 W/m2 OVC
17:37 45.7 °F 27.1 °F 30.16 in WNW 1.2 mph 1.2 mph 48% 0.00 in WeatherDisplay:10.37 W/m2 OVC
17:42 45.7 °F 28.1 °F 30.16 in ENE 1.2 mph   50% 0.00 in WeatherDisplay:10.37 W/m2 OVC
17:47 45.6 °F 28.0 °F 30.17 in ENE 1.2 mph   50% 0.00 in WeatherDisplay:10.37 W/m2 OVC
17:53 45.5 °F 29.3 °F 30.16 in ENE 1.2 mph   53% 0.00 in WeatherDisplay:10.37 W/m2 OVC
17:58 45.3 °F 28.7 °F 30.16 in ENE 1.2 mph   52% 0.00 in WeatherDisplay:10.37 W/m2 OVC
18:08 45.1 °F 29.0 °F 30.16 in ENE 1.2 mph   53% 0.00 in WeatherDisplay:10.37 W/m2 OVC
18:18 45.1 °F 29.0 °F 30.16 in West 1.2 mph 1.2 mph 53% 0.00 in WeatherDisplay:10.37 W/m2 OVC
18:23 45.1 °F 29.4 °F 30.16 in North 1.2 mph   54% 0.00 in WeatherDisplay:10.37 W/m2 OVC
18:30 45.2 °F 29.1 °F 30.16 in NNE 1.2 mph   53% 0.00 in WeatherDisplay:10.37 W/m2 OVC
18:35 45.1 °F 29.0 °F 30.16 in South 1.2 mph   53% 0.00 in WeatherDisplay:10.37 W/m2 OVC
18:40 45.1 °F 29.4 °F 30.16 in SSW 1.2 mph   54% 0.00 in WeatherDisplay:10.37 W/m2 OVC
18:45 44.9 °F 29.7 °F 30.16 in Calm     55% 0.00 in WeatherDisplay:10.37 W/m2 OVC
18:55 44.7 °F 29.5 °F 30.16 in Calm     55% 0.00 in WeatherDisplay:10.37 W/m2 OVC
19:00 44.7 °F 30.0 °F 30.16 in Calm     56% 0.00 in WeatherDisplay:10.37 W/m2 OVC
19:05 44.7 °F 29.5 °F 30.17 in SSW 1.2 mph   55% 0.00 in WeatherDisplay:10.37 W/m2 OVC
19:21 44.6 °F 30.3 °F 30.17 in Calm     57% 0.00 in WeatherDisplay:10.37 W/m2 OVC
19:26 44.4 °F 30.5 °F 30.17 in Calm     58% 0.00 in WeatherDisplay:10.37 W/m2 OVC
19:36 44.0 °F 30.6 °F 30.17 in Calm     59% 0.00 in WeatherDisplay:10.37 W/m2 OVC
19:41 43.7 °F 31.5 °F 30.17 in Calm     62% 0.00 in WeatherDisplay:10.37 W/m2 OVC
19:46 43.4 °F 31.2 °F 30.17 in Calm     62% 0.00 in WeatherDisplay:10.37 W/m2 OVC
19:51 43.2 °F 30.6 °F 30.17 in Calm     61% 0.00 in WeatherDisplay:10.37 W/m2 OVC
20:01 42.8 °F 31.5 °F 30.16 in Calm     64% 0.00 in WeatherDisplay:10.37 W/m2 SCT
20:06 42.7 °F 31.7 °F 30.16 in Calm     65% 0.00 in WeatherDisplay:10.37 W/m2 SCT
20:16 42.4 °F 31.5 °F 30.16 in Calm     65% 0.00 in WeatherDisplay:10.37 W/m2 SCT
20:22 42.3 °F 31.4 °F 30.15 in Calm     65% 0.00 in WeatherDisplay:10.37 W/m2 SCT
20:27 42.3 °F 31.4 °F 30.15 in Calm     65% 0.00 in WeatherDisplay:10.37 W/m2 SCT
20:32 42.4 °F 31.8 °F 30.16 in Calm     66% 0.00 in WeatherDisplay:10.37 W/m2 SCT
20:47 42.5 °F 31.9 °F 30.16 in Calm     66% 0.00 in WeatherDisplay:10.37 W/m2 SCT
20:57 42.6 °F 33.1 °F 30.16 in Calm     69% 0.00 in WeatherDisplay:10.37 W/m2 SCT
21:03 42.6 °F 33.1 °F 30.16 in Calm     69% 0.00 in WeatherDisplay:10.37 W/m2 OVC
21:08 42.6 °F 32.0 °F 30.15 in Calm     66% 0.00 in WeatherDisplay:10.37 W/m2 OVC
21:13 42.5 °F 31.9 °F 30.15 in Calm     66% 0.00 in WeatherDisplay:10.37 W/m2 OVC
21:38 42.7 °F 32.5 °F 30.15 in Calm     67% 0.00 in WeatherDisplay:10.37 W/m2 OVC
21:53 42.9 °F 31.9 °F 30.15 in Calm   0.1 mph 65% 0.00 in WeatherDisplay:10.37 W/m2 OVC
21:58 42.9 °F 31.9 °F 30.15 in West 1.2 mph   65% 0.00 in WeatherDisplay:10.37 W/m2 OVC
22:03 43.0 °F 31.6 °F 30.15 in West 1.2 mph   64% 0.00 in WeatherDisplay:10.37 W/m2 OVC
22:08 43.0 °F 31.6 °F 30.15 in Calm     64% 0.00 in WeatherDisplay:10.37 W/m2 OVC
22:14 43.1 °F 31.0 °F 30.15 in WSW 1.2 mph   62% 0.00 in WeatherDisplay:10.37 W/m2 OVC
22:23 43.1 °F 31.4 °F 30.16 in SW 1.2 mph   63% 0.00 in WeatherDisplay:10.37 W/m2 OVC
22:37 42.9 °F 31.6 °F 30.16 in Calm     64% 0.00 in WeatherDisplay:10.37 W/m2 OVC
22:42 42.9 °F 31.2 °F 30.15 in Calm     63% 0.00 in WeatherDisplay:10.37 W/m2 OVC
22:46 42.8 °F 31.8 °F 30.15 in Calm     65% 0.00 in WeatherDisplay:10.37 W/m2 OVC
22:56 42.7 °F 31.4 °F 30.14 in Calm     64% 0.00 in WeatherDisplay:10.37 W/m2 OVC
23:01 42.6 °F 31.3 °F 30.14 in Calm     64% 0.00 in WeatherDisplay:10.37 W/m2 OVC
23:06 42.5 °F 31.6 °F 30.14 in Calm     65% 0.00 in WeatherDisplay:10.37 W/m2 OVC
23:11 42.5 °F 31.6 °F 30.14 in Calm     65% 0.00 in WeatherDisplay:10.37 W/m2 OVC
23:16 42.5 °F 30.8 °F 30.14 in WSW 1.2 mph   63% 0.00 in WeatherDisplay:10.37 W/m2 OVC
23:21 42.6 °F 30.9 °F 30.14 in West 1.2 mph   63% 0.00 in WeatherDisplay:10.37 W/m2 OVC
23:26 42.7 °F 31.4 °F 30.14 in NW 1.2 mph 1.2 mph 64% 0.00 in WeatherDisplay:10.37 W/m2 OVC
23:31 42.7 °F 31.4 °F 30.14 in NW 1.2 mph   64% 0.00 in WeatherDisplay:10.37 W/m2 OVC
23:36 42.6 °F 30.9 °F 30.14 in NW 1.2 mph   63% 0.00 in WeatherDisplay:10.37 W/m2 OVC
23:42 42.6 °F 31.3 °F 30.14 in ENE 1.2 mph   64% 0.00 in WeatherDisplay:10.37 W/m2 OVC
23:47 42.6 °F 30.9 °F 30.14 in ESE 1.2 mph   63% 0.00 in WeatherDisplay:10.37 W/m2 OVC
23:57 42.6 °F 30.9 °F 30.14 in WSW 1.2 mph   63% 0.00 in WeatherDisplay:10.37 W/m2 OVC
Piedmont Bend
Compliments of Weather Underground - 4 mb